sensor_id;sensor_type;location;lat;lon;timestamp;pressure;altitude;pressure_sealevel;temperature;humidity
10606;BME280;5350;42.698;23.148;2023-04-26T00:01:16;92746.44;;;9.91;100.00
10606;BME280;5350;42.698;23.148;2023-04-26T00:03:43;92741.81;;;9.88;100.00
10606;BME280;5350;42.698;23.148;2023-04-26T00:06:11;92738.09;;;9.89;100.00
10606;BME280;5350;42.698;23.148;2023-04-26T00:08:39;92731.72;;;9.73;100.00
10606;BME280;5350;42.698;23.148;2023-04-26T00:11:06;92726.16;;;9.66;100.00
10606;BME280;5350;42.698;23.148;2023-04-26T00:13:33;92726.91;;;9.66;100.00
10606;BME280;5350;42.698;23.148;2023-04-26T00:16:01;92723.03;;;9.64;100.00
10606;BME280;5350;42.698;23.148;2023-04-26T00:18:28;92716.72;;;9.65;100.00
10606;BME280;5350;42.698;23.148;2023-04-26T00:20:56;92710.84;;;9.59;100.00
10606;BME280;5350;42.698;23.148;2023-04-26T00:23:24;92708.03;;;9.56;100.00
10606;BME280;5350;42.698;23.148;2023-04-26T00:25:50;92704.41;;;9.35;100.00
10606;BME280;5350;42.698;23.148;2023-04-26T00:28:17;92707.97;;;9.39;100.00
10606;BME280;5350;42.698;23.148;2023-04-26T00:30:44;92700.25;;;9.34;100.00
10606;BME280;5350;42.698;23.148;2023-04-26T00:33:13;92705.88;;;9.19;100.00
10606;BME280;5350;42.698;23.148;2023-04-26T00:35:40;92703.84;;;9.16;100.00
10606;BME280;5350;42.698;23.148;2023-04-26T00:38:06;92690.53;;;9.04;100.00
10606;BME280;5350;42.698;23.148;2023-04-26T00:40:34;92698.97;;;8.92;100.00
10606;BME280;5350;42.698;23.148;2023-04-26T00:43:02;92703.91;;;8.94;100.00
10606;BME280;5350;42.698;23.148;2023-04-26T00:45:29;92697.81;;;8.76;100.00
10606;BME280;5350;42.698;23.148;2023-04-26T00:47:56;92703.16;;;8.71;100.00
10606;BME280;5350;42.698;23.148;2023-04-26T00:50:23;92696.84;;;8.50;100.00
10606;BME280;5350;42.698;23.148;2023-04-26T00:52:50;92695.31;;;8.49;100.00
10606;BME280;5350;42.698;23.148;2023-04-26T00:55:17;92697.13;;;8.26;100.00
10606;BME280;5350;42.698;23.148;2023-04-26T00:57:48;92688.81;;;8.11;100.00
10606;BME280;5350;42.698;23.148;2023-04-26T01:00:15;92693.66;;;8.03;100.00
10606;BME280;5350;42.698;23.148;2023-04-26T01:02:41;92688.25;;;8.00;100.00
10606;BME280;5350;42.698;23.148;2023-04-26T01:05:08;92695.16;;;7.96;100.00
10606;BME280;5350;42.698;23.148;2023-04-26T01:07:35;92706.09;;;7.98;100.00
10606;BME280;5350;42.698;23.148;2023-04-26T01:10:03;92703.31;;;7.94;100.00
10606;BME280;5350;42.698;23.148;2023-04-26T01:12:30;92701.44;;;7.95;100.00
10606;BME280;5350;42.698;23.148;2023-04-26T01:14:58;92698.81;;;7.95;100.00
10606;BME280;5350;42.698;23.148;2023-04-26T01:17:25;92694.59;;;7.85;100.00
10606;BME280;5350;42.698;23.148;2023-04-26T01:19:52;92684.91;;;7.72;100.00
10606;BME280;5350;42.698;23.148;2023-04-26T01:22:19;92691.59;;;7.78;100.00
10606;BME280;5350;42.698;23.148;2023-04-26T01:24:50;92695.09;;;7.74;100.00
10606;BME280;5350;42.698;23.148;2023-04-26T01:27:16;92700.03;;;7.75;100.00
10606;BME280;5350;42.698;23.148;2023-04-26T01:29:43;92708.38;;;7.77;100.00
10606;BME280;5350;42.698;23.148;2023-04-26T01:32:10;92714.25;;;7.83;100.00
10606;BME280;5350;42.698;23.148;2023-04-26T01:34:37;92711.38;;;7.71;100.00
10606;BME280;5350;42.698;23.148;2023-04-26T01:37:04;92719.53;;;7.69;100.00
10606;BME280;5350;42.698;23.148;2023-04-26T01:39:32;92707.53;;;7.55;100.00
10606;BME280;5350;42.698;23.148;2023-04-26T01:42:00;92717.22;;;7.54;100.00
10606;BME280;5350;42.698;23.148;2023-04-26T01:44:27;92715.00;;;7.61;100.00
10606;BME280;5350;42.698;23.148;2023-04-26T01:46:53;92711.69;;;7.56;100.00
10606;BME280;5350;42.698;23.148;2023-04-26T01:49:20;92702.88;;;7.38;100.00
10606;BME280;5350;42.698;23.148;2023-04-26T01:51:47;92701.91;;;7.48;100.00
10606;BME280;5350;42.698;23.148;2023-04-26T01:54:14;92700.34;;;7.33;100.00
10606;BME280;5350;42.698;23.148;2023-04-26T01:56:41;92691.03;;;7.41;100.00
10606;BME280;5350;42.698;23.148;2023-04-26T01:59:09;92682.03;;;7.47;100.00
10606;BME280;5350;42.698;23.148;2023-04-26T02:01:35;92676.13;;;7.55;100.00
10606;BME280;5350;42.698;23.148;2023-04-26T02:04:02;92679.59;;;7.64;100.00
10606;BME280;5350;42.698;23.148;2023-04-26T02:06:30;92675.31;;;7.68;100.00
10606;BME280;5350;42.698;23.148;2023-04-26T02:08:57;92672.13;;;7.71;100.00
10606;BME280;5350;42.698;23.148;2023-04-26T02:11:24;92668.22;;;7.82;100.00
10606;BME280;5350;42.698;23.148;2023-04-26T02:13:51;92661.34;;;7.86;100.00
10606;BME280;5350;42.698;23.148;2023-04-26T02:16:19;92663.41;;;7.97;100.00
10606;BME280;5350;42.698;23.148;2023-04-26T02:18:46;92657.41;;;7.97;100.00
10606;BME280;5350;42.698;23.148;2023-04-26T02:21:15;92676.59;;;8.06;100.00
10606;BME280;5350;42.698;23.148;2023-04-26T02:23:42;92671.72;;;8.13;100.00
10606;BME280;5350;42.698;23.148;2023-04-26T02:26:09;92673.88;;;8.11;100.00
10606;BME280;5350;42.698;23.148;2023-04-26T02:28:37;92674.41;;;8.22;100.00
10606;BME280;5350;42.698;23.148;2023-04-26T02:31:04;92672.47;;;8.27;100.00
10606;BME280;5350;42.698;23.148;2023-04-26T02:33:32;92677.63;;;8.32;100.00
10606;BME280;5350;42.698;23.148;2023-04-26T02:36:01;92685.50;;;8.41;100.00
10606;BME280;5350;42.698;23.148;2023-04-26T02:38:28;92684.63;;;8.45;100.00
10606;BME280;5350;42.698;23.148;2023-04-26T02:40:57;92667.13;;;8.32;100.00
10606;BME280;5350;42.698;23.148;2023-04-26T02:43:24;92672.84;;;8.56;100.00
10606;BME280;5350;42.698;23.148;2023-04-26T02:45:51;92663.41;;;8.55;100.00
10606;BME280;5350;42.698;23.148;2023-04-26T02:48:17;92659.00;;;8.64;100.00
10606;BME280;5350;42.698;23.148;2023-04-26T02:50:46;92649.41;;;8.60;100.00
10606;BME280;5350;42.698;23.148;2023-04-26T02:53:13;92656.56;;;8.68;100.00
10606;BME280;5350;42.698;23.148;2023-04-26T02:55:41;92653.97;;;8.76;100.00
10606;BME280;5350;42.698;23.148;2023-04-26T02:58:08;92651.66;;;8.75;100.00
10606;BME280;5350;42.698;23.148;2023-04-26T03:00:34;92656.56;;;8.68;100.00
10606;BME280;5350;42.698;23.148;2023-04-26T03:03:01;92650.72;;;8.71;100.00
10606;BME280;5350;42.698;23.148;2023-04-26T03:05:28;92641.34;;;8.78;100.00
10606;BME280;5350;42.698;23.148;2023-04-26T03:07:56;92653.88;;;8.81;100.00
10606;BME280;5350;42.698;23.148;2023-04-26T03:10:22;92652.19;;;8.85;100.00
10606;BME280;5350;42.698;23.148;2023-04-26T03:12:49;92649.44;;;8.91;100.00
10606;BME280;5350;42.698;23.148;2023-04-26T03:15:16;92644.84;;;8.96;100.00
10606;BME280;5350;42.698;23.148;2023-04-26T03:17:43;92646.09;;;8.99;100.00
10606;BME280;5350;42.698;23.148;2023-04-26T03:20:10;92646.41;;;9.06;100.00
10606;BME280;5350;42.698;23.148;2023-04-26T03:22:38;92644.41;;;9.03;100.00
10606;BME280;5350;42.698;23.148;2023-04-26T03:25:07;92642.84;;;9.02;100.00
10606;BME280;5350;42.698;23.148;2023-04-26T03:27:33;92641.94;;;9.06;100.00
10606;BME280;5350;42.698;23.148;2023-04-26T03:30:00;92647.81;;;9.03;100.00
10606;BME280;5350;42.698;23.148;2023-04-26T03:32:28;92657.22;;;9.04;100.00
10606;BME280;5350;42.698;23.148;2023-04-26T03:34:55;92655.69;;;9.12;100.00
10606;BME280;5350;42.698;23.148;2023-04-26T03:37:22;92665.09;;;9.04;100.00
10606;BME280;5350;42.698;23.148;2023-04-26T03:39:48;92656.38;;;8.95;100.00
10606;BME280;5350;42.698;23.148;2023-04-26T03:42:19;92664.16;;;9.00;100.00
10606;BME280;5350;42.698;23.148;2023-04-26T03:44:46;92671.69;;;9.02;100.00
10606;BME280;5350;42.698;23.148;2023-04-26T03:47:13;92674.03;;;9.03;100.00
10606;BME280;5350;42.698;23.148;2023-04-26T03:49:40;92676.34;;;9.05;100.00
10606;BME280;5350;42.698;23.148;2023-04-26T03:52:07;92677.59;;;9.07;100.00
10606;BME280;5350;42.698;23.148;2023-04-26T03:54:34;92677.00;;;9.10;100.00
10606;BME280;5350;42.698;23.148;2023-04-26T03:57:00;92683.19;;;9.14;100.00
10606;BME280;5350;42.698;23.148;2023-04-26T03:59:28;92685.03;;;9.14;100.00
10606;BME280;5350;42.698;23.148;2023-04-26T04:01:55;92690.47;;;9.17;100.00
10606;BME280;5350;42.698;23.148;2023-04-26T04:04:22;92696.66;;;9.21;100.00
10606;BME280;5350;42.698;23.148;2023-04-26T04:06:48;92690.03;;;9.24;100.00
10606;BME280;5350;42.698;23.148;2023-04-26T04:09:15;92691.72;;;9.28;100.00
10606;BME280;5350;42.698;23.148;2023-04-26T04:11:42;92684.03;;;9.32;100.00
10606;BME280;5350;42.698;23.148;2023-04-26T04:14:09;92693.63;;;9.36;100.00
10606;BME280;5350;42.698;23.148;2023-04-26T04:16:37;92693.66;;;9.45;100.00
10606;BME280;5350;42.698;23.148;2023-04-26T04:19:04;92697.22;;;9.49;100.00
10606;BME280;5350;42.698;23.148;2023-04-26T04:21:31;92701.84;;;9.52;100.00
10606;BME280;5350;42.698;23.148;2023-04-26T04:23:58;92710.81;;;9.51;100.00
10606;BME280;5350;42.698;23.148;2023-04-26T04:26:24;92709.13;;;9.55;100.00
10606;BME280;5350;42.698;23.148;2023-04-26T04:28:52;92701.41;;;9.58;100.00
10606;BME280;5350;42.698;23.148;2023-04-26T04:31:19;92701.75;;;9.65;100.00
10606;BME280;5350;42.698;23.148;2023-04-26T04:33:47;92710.13;;;9.76;100.00
10606;BME280;5350;42.698;23.148;2023-04-26T04:36:14;92710.44;;;9.83;100.00
10606;BME280;5350;42.698;23.148;2023-04-26T04:38:42;92717.56;;;9.91;100.00
10606;BME280;5350;42.698;23.148;2023-04-26T04:41:09;92719.41;;;9.82;100.00
10606;BME280;5350;42.698;23.148;2023-04-26T04:43:36;92720.28;;;9.69;100.00
10606;BME280;5350;42.698;23.148;2023-04-26T04:46:03;92724.00;;;9.77;100.00
10606;BME280;5350;42.698;23.148;2023-04-26T04:48:30;92718.31;;;9.83;100.00
10606;BME280;5350;42.698;23.148;2023-04-26T04:50:58;92727.44;;;9.86;100.00
10606;BME280;5350;42.698;23.148;2023-04-26T04:53:26;92721.75;;;9.92;100.00
10606;BME280;5350;42.698;23.148;2023-04-26T04:55:53;92719.28;;;10.04;100.00
10606;BME280;5350;42.698;23.148;2023-04-26T04:58:20;92715.75;;;10.09;100.00
10606;BME280;5350;42.698;23.148;2023-04-26T05:00:47;92725.06;;;10.15;100.00
10606;BME280;5350;42.698;23.148;2023-04-26T05:03:15;92713.00;;;10.22;100.00
10606;BME280;5350;42.698;23.148;2023-04-26T05:05:41;92720.16;;;10.30;100.00
10606;BME280;5350;42.698;23.148;2023-04-26T05:08:09;92718.44;;;10.34;100.00
10606;BME280;5350;42.698;23.148;2023-04-26T05:10:36;92713.16;;;10.43;100.00
10606;BME280;5350;42.698;23.148;2023-04-26T05:13:03;92718.13;;;10.44;100.00
10606;BME280;5350;42.698;23.148;2023-04-26T05:15:30;92720.59;;;10.24;100.00
10606;BME280;5350;42.698;23.148;2023-04-26T05:17:57;92720.88;;;10.22;100.00
10606;BME280;5350;42.698;23.148;2023-04-26T05:20:24;92726.00;;;10.19;100.00
10606;BME280;5350;42.698;23.148;2023-04-26T05:22:51;92729.88;;;10.21;100.00
10606;BME280;5350;42.698;23.148;2023-04-26T05:25:19;92725.22;;;10.35;100.00
10606;BME280;5350;42.698;23.148;2023-04-26T05:27:46;92709.44;;;10.18;100.00
10606;BME280;5350;42.698;23.148;2023-04-26T05:30:13;92728.31;;;10.29;100.00
10606;BME280;5350;42.698;23.148;2023-04-26T05:32:39;92730.81;;;10.42;100.00
10606;BME280;5350;42.698;23.148;2023-04-26T05:35:07;92735.75;;;10.44;100.00
10606;BME280;5350;42.698;23.148;2023-04-26T05:37:34;92744.56;;;10.48;100.00
10606;BME280;5350;42.698;23.148;2023-04-26T05:40:01;92747.34;;;10.52;100.00
10606;BME280;5350;42.698;23.148;2023-04-26T05:42:30;92746.91;;;10.58;100.00
10606;BME280;5350;42.698;23.148;2023-04-26T05:44:57;92759.72;;;10.77;100.00
10606;BME280;5350;42.698;23.148;2023-04-26T05:47:24;92755.25;;;10.86;100.00
10606;BME280;5350;42.698;23.148;2023-04-26T05:49:51;92759.72;;;11.02;100.00
10606;BME280;5350;42.698;23.148;2023-04-26T05:52:18;92749.53;;;10.92;100.00
10606;BME280;5350;42.698;23.148;2023-04-26T05:54:44;92760.38;;;10.74;100.00
10606;BME280;5350;42.698;23.148;2023-04-26T05:57:11;92760.38;;;10.91;100.00
10606;BME280;5350;42.698;23.148;2023-04-26T05:59:40;92754.59;;;11.06;100.00
10606;BME280;5350;42.698;23.148;2023-04-26T06:02:06;92756.16;;;10.90;100.00
10606;BME280;5350;42.698;23.148;2023-04-26T06:04:34;92763.47;;;10.93;100.00
10606;BME280;5350;42.698;23.148;2023-04-26T06:07:00;92761.28;;;11.03;100.00
10606;BME280;5350;42.698;23.148;2023-04-26T06:09:30;92764.03;;;11.15;100.00
10606;BME280;5350;42.698;23.148;2023-04-26T06:11:57;92760.47;;;11.20;100.00
10606;BME280;5350;42.698;23.148;2023-04-26T06:14:23;92763.06;;;11.37;100.00
10606;BME280;5350;42.698;23.148;2023-04-26T06:16:52;92777.91;;;11.50;100.00
10606;BME280;5350;42.698;23.148;2023-04-26T06:19:19;92780.88;;;11.40;98.73
10606;BME280;5350;42.698;23.148;2023-04-26T06:21:45;92783.22;;;11.24;98.78
10606;BME280;5350;42.698;23.148;2023-04-26T06:24:13;92789.25;;;11.25;100.00
10606;BME280;5350;42.698;23.148;2023-04-26T06:26:40;92789.09;;;11.21;96.78
10606;BME280;5350;42.698;23.148;2023-04-26T06:29:06;92790.97;;;11.04;96.72
10606;BME280;5350;42.698;23.148;2023-04-26T06:31:33;92785.25;;;11.02;98.01
10606;BME280;5350;42.698;23.148;2023-04-26T06:34:01;92786.50;;;10.96;95.38
10606;BME280;5350;42.698;23.148;2023-04-26T06:36:28;92788.53;;;10.82;99.39
10606;BME280;5350;42.698;23.148;2023-04-26T06:38:55;92788.06;;;10.80;100.00
10606;BME280;5350;42.698;23.148;2023-04-26T06:41:22;92794.38;;;10.70;99.53
10606;BME280;5350;42.698;23.148;2023-04-26T06:43:49;92797.31;;;10.52;100.00
10606;BME280;5350;42.698;23.148;2023-04-26T06:46:15;92793.47;;;10.49;100.00
10606;BME280;5350;42.698;23.148;2023-04-26T06:48:42;92796.22;;;10.44;98.71
10606;BME280;5350;42.698;23.148;2023-04-26T06:51:10;92788.31;;;10.35;98.08
10606;BME280;5350;42.698;23.148;2023-04-26T06:53:37;92785.84;;;10.30;98.71
10606;BME280;5350;42.698;23.148;2023-04-26T06:56:04;92801.44;;;10.27;100.00
10606;BME280;5350;42.698;23.148;2023-04-26T06:58:31;92794.22;;;10.32;96.53
10606;BME280;5350;42.698;23.148;2023-04-26T07:00:57;92789.56;;;10.38;100.00
10606;BME280;5350;42.698;23.148;2023-04-26T07:03:24;92791.88;;;10.39;94.91
10606;BME280;5350;42.698;23.148;2023-04-26T07:05:51;92799.94;;;10.52;94.86
10606;BME280;5350;42.698;23.148;2023-04-26T07:08:19;92787.69;;;10.21;90.89
10606;BME280;5350;42.698;23.148;2023-04-26T07:10:45;92794.69;;;10.34;90.33
10606;BME280;5350;42.698;23.148;2023-04-26T07:13:12;92798.50;;;10.28;92.11
10606;BME280;5350;42.698;23.148;2023-04-26T07:15:39;92808.56;;;10.18;86.30
10606;BME280;5350;42.698;23.148;2023-04-26T07:18:06;92801.44;;;10.27;86.48
10606;BME280;5350;42.698;23.148;2023-04-26T07:20:33;92804.09;;;10.35;86.98
10606;BME280;5350;42.698;23.148;2023-04-26T07:22:59;92803.19;;;10.49;87.43
10606;BME280;5350;42.698;23.148;2023-04-26T07:25:27;92806.78;;;10.70;85.91
10606;BME280;5350;42.698;23.148;2023-04-26T07:27:54;92810.00;;;10.50;88.64
10606;BME280;5350;42.698;23.148;2023-04-26T07:30:21;92812.47;;;10.55;84.44
10606;BME280;5350;42.698;23.148;2023-04-26T07:32:48;92804.13;;;10.53;85.08
10606;BME280;5350;42.698;23.148;2023-04-26T07:35:14;92823.44;;;10.48;84.08
10606;BME280;5350;42.698;23.148;2023-04-26T07:37:42;92813.84;;;10.43;86.38
10606;BME280;5350;42.698;23.148;2023-04-26T07:40:10;92814.34;;;10.63;87.20
10606;BME280;5350;42.698;23.148;2023-04-26T07:42:39;92820.84;;;10.57;85.71
10606;BME280;5350;42.698;23.148;2023-04-26T07:45:07;92825.34;;;10.82;85.25
10606;BME280;5350;42.698;23.148;2023-04-26T07:47:33;92821.47;;;11.05;85.08
10606;BME280;5350;42.698;23.148;2023-04-26T07:50:00;92820.84;;;10.99;84.10
10606;BME280;5350;42.698;23.148;2023-04-26T07:52:27;92822.88;;;11.11;84.44
10606;BME280;5350;42.698;23.148;2023-04-26T07:54:54;92832.00;;;11.22;81.96
10606;BME280;5350;42.698;23.148;2023-04-26T07:57:20;92821.63;;;11.25;80.21
10606;BME280;5350;42.698;23.148;2023-04-26T07:59:48;92823.78;;;11.23;81.81
10606;BME280;5350;42.698;23.148;2023-04-26T08:02:15;92832.13;;;11.43;80.30
10606;BME280;5350;42.698;23.148;2023-04-26T08:04:46;92816.22;;;11.22;77.27
10606;BME280;5350;42.698;23.148;2023-04-26T08:07:13;92833.53;;;11.32;78.03
10606;BME280;5350;42.698;23.148;2023-04-26T08:09:40;92826.44;;;11.15;77.83
10606;BME280;5350;42.698;23.148;2023-04-26T08:12:07;92821.94;;;11.24;78.39
10606;BME280;5350;42.698;23.148;2023-04-26T08:14:34;92824.56;;;11.24;75.93
10606;BME280;5350;42.698;23.148;2023-04-26T08:17:02;92821.28;;;11.36;77.16
10606;BME280;5350;42.698;23.148;2023-04-26T08:19:29;92836.00;;;11.45;79.12
10606;BME280;5350;42.698;23.148;2023-04-26T08:21:57;92834.78;;;11.34;75.74
10606;BME280;5350;42.698;23.148;2023-04-26T08:24:24;92835.69;;;11.30;76.73
10606;BME280;5350;42.698;23.148;2023-04-26T08:26:51;92819.31;;;11.24;79.48
10606;BME280;5350;42.698;23.148;2023-04-26T08:29:18;92818.50;;;11.32;79.94
10606;BME280;5350;42.698;23.148;2023-04-26T08:31:45;92820.34;;;11.49;75.94
10606;BME280;5350;42.698;23.148;2023-04-26T08:34:13;92817.97;;;11.73;77.30
10606;BME280;5350;42.698;23.148;2023-04-26T08:36:40;92814.06;;;11.87;74.29
10606;BME280;5350;42.698;23.148;2023-04-26T08:39:07;92816.28;;;12.15;77.34
10606;BME280;5350;42.698;23.148;2023-04-26T08:41:36;92819.91;;;12.31;72.14
10606;BME280;5350;42.698;23.148;2023-04-26T08:44:04;92823.16;;;12.36;71.76
10606;BME280;5350;42.698;23.148;2023-04-26T08:46:35;92819.47;;;12.29;70.68
10606;BME280;5350;42.698;23.148;2023-04-26T08:49:20;92830.66;;;12.26;71.59
10606;BME280;5350;42.698;23.148;2023-04-26T08:51:50;92834.88;;;12.18;69.08
10606;BME280;5350;42.698;23.148;2023-04-26T08:54:19;92833.31;;;12.17;68.60
10606;BME280;5350;42.698;23.148;2023-04-26T08:56:46;92845.38;;;12.27;69.04
10606;BME280;5350;42.698;23.148;2023-04-26T08:59:14;92831.88;;;12.28;70.87
10606;BME280;5350;42.698;23.148;2023-04-26T09:01:43;92823.94;;;12.37;70.64
10606;BME280;5350;42.698;23.148;2023-04-26T09:04:10;92842.97;;;12.13;69.72
10606;BME280;5350;42.698;23.148;2023-04-26T09:06:38;92829.53;;;12.27;70.47
10606;BME280;5350;42.698;23.148;2023-04-26T09:09:08;92833.63;;;12.24;68.19
10606;BME280;5350;42.698;23.148;2023-04-26T09:11:53;92831.88;;;12.28;69.73
10606;BME280;5350;42.698;23.148;2023-04-26T09:14:20;92834.06;;;12.55;65.03
10606;BME280;5350;42.698;23.148;2023-04-26T09:16:47;92834.75;;;12.44;64.63
10606;BME280;5350;42.698;23.148;2023-04-26T09:19:13;92847.75;;;12.49;63.08
10606;BME280;5350;42.698;23.148;2023-04-26T09:21:42;92832.75;;;12.41;63.09
10606;BME280;5350;42.698;23.148;2023-04-26T09:24:11;92849.66;;;12.40;63.27
10606;BME280;5350;42.698;23.148;2023-04-26T09:26:38;92849.72;;;12.23;62.37
10606;BME280;5350;42.698;23.148;2023-04-26T09:29:13;92734.91;;;11.75;65.19
10606;BME280;5350;42.698;23.148;2023-04-26T09:31:42;92851.38;;;12.65;61.68
10606;BME280;5350;42.698;23.148;2023-04-26T09:34:10;92838.53;;;12.63;61.15
10606;BME280;5350;42.698;23.148;2023-04-26T09:36:47;92838.84;;;12.62;60.51
10606;BME280;5350;42.698;23.148;2023-04-26T09:39:29;92823.47;;;12.64;62.36
10606;BME280;5350;42.698;23.148;2023-04-26T09:41:57;92843.53;;;12.77;60.18
10606;BME280;5350;42.698;23.148;2023-04-26T09:44:24;92836.97;;;12.83;60.76
10606;BME280;5350;42.698;23.148;2023-04-26T09:47:01;92838.25;;;12.77;59.14
10606;BME280;5350;42.698;23.148;2023-04-26T09:49:31;92831.91;;;12.78;61.05
10606;BME280;5350;42.698;23.148;2023-04-26T09:52:00;92830.44;;;12.89;59.25
10606;BME280;5350;42.698;23.148;2023-04-26T09:54:39;92830.31;;;13.06;57.36
10606;BME280;5350;42.698;23.148;2023-04-26T09:57:06;92825.69;;;13.03;59.69
10606;BME280;5350;42.698;23.148;2023-04-26T09:59:40;92824.19;;;13.14;59.71
10606;BME280;5350;42.698;23.148;2023-04-26T10:02:12;92830.38;;;13.39;57.98
10606;BME280;5350;42.698;23.148;2023-04-26T10:04:41;92829.63;;;13.50;57.63
10606;BME280;5350;42.698;23.148;2023-04-26T10:07:10;92823.47;;;13.46;58.03
10606;BME280;5350;42.698;23.148;2023-04-26T10:09:38;92836.75;;;13.38;56.01
10606;BME280;5350;42.698;23.148;2023-04-26T10:12:08;92831.19;;;13.51;55.79
10606;BME280;5350;42.698;23.148;2023-04-26T10:14:35;92821.13;;;13.33;53.72
10606;BME280;5350;42.698;23.148;2023-04-26T10:17:02;92828.13;;;13.49;56.17
10606;BME280;5350;42.698;23.148;2023-04-26T10:19:31;92757.81;;;13.04;54.98
10606;BME280;5350;42.698;23.148;2023-04-26T10:22:03;92822.72;;;13.25;56.18
10606;BME280;5350;42.698;23.148;2023-04-26T10:24:30;92818.72;;;13.19;55.94
10606;BME280;5350;42.698;23.148;2023-04-26T10:26:58;92822.38;;;13.27;54.37
10606;BME280;5350;42.698;23.148;2023-04-26T10:30:05;92810.88;;;13.11;56.64
10606;BME280;5350;42.698;23.148;2023-04-26T10:36:13;92815.22;;;13.48;52.15
10606;BME280;5350;42.698;23.148;2023-04-26T10:39:16;92807.16;;;13.44;53.55
10606;BME280;5350;42.698;23.148;2023-04-26T10:41:39;92810.66;;;13.36;50.53
10606;BME280;5350;42.698;23.148;2023-04-26T10:44:39;92811.72;;;13.23;51.25
10606;BME280;5350;42.698;23.148;2023-04-26T10:47:06;92795.38;;;13.09;51.63
10606;BME280;5350;42.698;23.148;2023-04-26T10:49:44;92811.25;;;13.21;49.87
10606;BME280;5350;42.698;23.148;2023-04-26T10:52:13;92801.38;;;13.18;50.17
10606;BME280;5350;42.698;23.148;2023-04-26T10:54:47;92818.81;;;13.43;51.17
10606;BME280;5350;42.698;23.148;2023-04-26T10:57:15;92819.50;;;13.52;51.38
10606;BME280;5350;42.698;23.148;2023-04-26T11:00:24;92817.13;;;13.59;50.66
10606;BME280;5350;42.698;23.148;2023-04-26T11:03:12;92810.56;;;13.90;49.27
10606;BME280;5350;42.698;23.148;2023-04-26T11:05:53;92802.16;;;13.63;47.96
10606;BME280;5350;42.698;23.148;2023-04-26T11:08:23;92795.75;;;13.64;47.99
10606;BME280;5350;42.698;23.148;2023-04-26T11:10:57;92813.09;;;13.41;49.35
10606;BME280;5350;42.698;23.148;2023-04-26T11:13:23;92791.50;;;13.39;51.11
10606;BME280;5350;42.698;23.148;2023-04-26T11:15:59;92802.97;;;13.88;50.45
10606;BME280;5350;42.698;23.148;2023-04-26T11:18:28;92805.34;;;14.14;47.76
10606;BME280;5350;42.698;23.148;2023-04-26T11:20:55;92786.81;;;14.14;49.07
10606;BME280;5350;42.698;23.148;2023-04-26T11:23:23;92797.94;;;14.07;47.45
10606;BME280;5350;42.698;23.148;2023-04-26T11:25:49;92800.03;;;14.26;48.19
10606;BME280;5350;42.698;23.148;2023-04-26T11:28:18;92795.00;;;14.45;48.78
10606;BME280;5350;42.698;23.148;2023-04-26T11:30:44;92795.00;;;14.45;48.16
10606;BME280;5350;42.698;23.148;2023-04-26T11:33:17;92782.66;;;14.37;49.71
10606;BME280;5350;42.698;23.148;2023-04-26T11:35:45;92799.41;;;14.29;48.69
10606;BME280;5350;42.698;23.148;2023-04-26T11:38:12;92808.19;;;14.09;47.76
10606;BME280;5350;42.698;23.148;2023-04-26T11:40:39;92812.06;;;13.67;49.82
10606;BME280;5350;42.698;23.148;2023-04-26T11:43:07;92804.44;;;13.20;50.82
10606;BME280;5350;42.698;23.148;2023-04-26T11:45:35;92790.59;;;13.23;51.43
10606;BME280;5350;42.698;23.148;2023-04-26T11:48:03;92805.78;;;13.26;50.90
10606;BME280;5350;42.698;23.148;2023-04-26T11:50:33;92804.00;;;13.18;50.90
10606;BME280;5350;42.698;23.148;2023-04-26T11:53:01;92795.25;;;13.38;51.46
10606;BME280;5350;42.698;23.148;2023-04-26T11:55:30;92800.09;;;13.36;50.34
10606;BME280;5350;42.698;23.148;2023-04-26T11:57:57;92787.78;;;13.40;49.13
10606;BME280;5350;42.698;23.148;2023-04-26T12:00:25;92795.59;;;13.94;49.28
10606;BME280;5350;42.698;23.148;2023-04-26T12:02:52;92787.66;;;13.94;47.41
10606;BME280;5350;42.698;23.148;2023-04-26T12:05:22;92812.47;;;14.13;47.16
10606;BME280;5350;42.698;23.148;2023-04-26T12:07:51;92797.16;;;13.95;46.72
10606;BME280;5350;42.698;23.148;2023-04-26T12:10:23;92793.63;;;14.03;47.19
10606;BME280;5350;42.698;23.148;2023-04-26T12:12:52;92804.09;;;13.99;46.18
10606;BME280;5350;42.698;23.148;2023-04-26T12:15:27;92785.47;;;13.96;47.40
10606;BME280;5350;42.698;23.148;2023-04-26T12:17:55;92776.00;;;14.07;47.35
10606;BME280;5350;42.698;23.148;2023-04-26T12:20:30;92802.44;;;14.07;47.42
10606;BME280;5350;42.698;23.148;2023-04-26T12:23:03;92785.94;;;14.10;48.61
10606;BME280;5350;42.698;23.148;2023-04-26T12:25:31;92756.72;;;14.06;46.65
10606;BME280;5350;42.698;23.148;2023-04-26T12:27:58;92790.03;;;14.56;47.97
10606;BME280;5350;42.698;23.148;2023-04-26T12:30:27;92777.88;;;14.67;47.98
10606;BME280;5350;42.698;23.148;2023-04-26T12:32:54;92789.34;;;14.22;47.26
10606;BME280;5350;42.698;23.148;2023-04-26T12:35:22;92785.16;;;14.21;49.70
10606;BME280;5350;42.698;23.148;2023-04-26T12:37:49;92788.34;;;13.91;48.12
10606;BME280;5350;42.698;23.148;2023-04-26T12:40:19;92779.19;;;13.76;50.31
10606;BME280;5350;42.698;23.148;2023-04-26T12:42:46;92774.91;;;14.08;47.27
10606;BME280;5350;42.698;23.148;2023-04-26T12:45:14;92785.50;;;14.08;45.12
10606;BME280;5350;42.698;23.148;2023-04-26T12:47:40;92768.75;;;14.04;47.30
10606;BME280;5350;42.698;23.148;2023-04-26T12:50:08;92780.22;;;14.08;46.71
10606;BME280;5350;42.698;23.148;2023-04-26T12:52:37;92770.84;;;14.22;47.40
10606;BME280;5350;42.698;23.148;2023-04-26T12:55:05;92773.13;;;13.88;49.41
10606;BME280;5350;42.698;23.148;2023-04-26T12:57:33;92773.69;;;13.93;50.17
10606;BME280;5350;42.698;23.148;2023-04-26T13:00:00;92782.38;;;13.82;50.30
10606;BME280;5350;42.698;23.148;2023-04-26T13:02:26;92782.19;;;13.54;51.40
10606;BME280;5350;42.698;23.148;2023-04-26T13:04:53;92799.25;;;13.12;51.10
10606;BME280;5350;42.698;23.148;2023-04-26T13:07:20;92784.94;;;13.45;49.14
10606;BME280;5350;42.698;23.148;2023-04-26T13:09:47;92820.00;;;13.67;47.08